Brookville, Pennsylvania
Current Conditions -  °F | °C
As of 10:53 PM on Monday 20 Oct 2014 (Local Time) from KDUJ Reporting Station
Overcast Overcast  
Wind Chill: 48°   Ceiling: 5500
Heat Index: 48°   Visibility: 10mi
Dew Point: 42°   Wind: 3mph
Humidity: 80%   Direction: 210°SSW
Pressure: 29.87"   Gusts: NA
Location:  41.16°N, 79.08°W
Report Text: KDUJ 210253Z AUTO 21003KT 10SM OVC055 09/06 A2987 RMK AO2 SLP119 60001 T00890056 58003
Loading
Personal Weather Stations






























Interactive Weather Map New forecast layout! Learn more

10-Day Weather Forecast

Advertisements
Track Severe Weather on mobile